Time;durP1;ratioP1;P1;durP2;ratioP2;P2;SDS_P1;SDS_P2;PMS_P1;PMS_P2;Temp;Humidity;BMP_temperature;BMP_pressure;BME280_temperature;BME280_humidity;BME280_pressure;Samples;Min_cycle;Max_cycle;Signal;HPM_P1;HPM_P2
2023/08/08 00:00:48;;;;;;;5.85;3.40;;;;;;;;;;5056238;28;20091;-87
2023/08/08 00:03:32;;;;;;;5.93;3.22;;;;;;;;;;5071460;28;20138;-88
2023/08/08 00:06:17;;;;;;;4.55;3.13;;;;;;;;;;5070892;28;20059;-88
2023/08/08 00:09:02;;;;;;;7.95;3.42;;;;;;;;;;5071237;28;20055;-88
2023/08/08 00:11:47;;;;;;;4.32;2.95;;;;;;;;;;5070325;28;20086;-88
2023/08/08 00:14:31;;;;;;;6.53;3.78;;;;;;;;;;5064906;28;20500;-88
2023/08/08 00:17:16;;;;;;;7.60;3.30;;;;;;;;;;5064839;28;20074;-89
2023/08/08 00:20:00;;;;;;;7.55;3.03;;;;;;;;;;5070313;28;20067;-88
2023/08/08 00:22:45;;;;;;;7.57;3.03;;;;;;;;;;5070113;28;20085;-88
2023/08/08 00:25:30;;;;;;;9.35;3.33;;;;;;;;;;5070606;28;20080;-88
2023/08/08 00:28:14;;;;;;;7.22;3.00;;;;;;;;;;5069646;28;20044;-88
2023/08/08 00:30:58;;;;;;;7.18;2.72;;;;;;;;;;5071090;28;20047;-89
2023/08/08 00:33:43;;;;;;;5.03;2.90;;;;;;;;;;5071104;28;20039;-89
2023/08/08 00:36:27;;;;;;;7.75;2.80;;;;;;;;;;5069400;28;20090;-88
2023/08/08 00:39:12;;;;;;;12.98;3.42;;;;;;;;;;5070616;28;20039;-88
2023/08/08 00:41:57;;;;;;;6.75;3.00;;;;;;;;;;5070131;28;20122;-88
2023/08/08 00:44:41;;;;;;;5.43;2.97;;;;;;;;;;5069644;28;20527;-88
2023/08/08 00:47:26;;;;;;;4.85;2.67;;;;;;;;;;5068669;28;20129;-88
2023/08/08 00:50:11;;;;;;;5.32;2.85;;;;;;;;;;5070699;28;20066;-87
2023/08/08 00:52:56;;;;;;;6.97;3.60;;;;;;;;;;5071662;28;20047;-88
2023/08/08 00:55:41;;;;;;;6.22;2.95;;;;;;;;;;5074519;28;20074;-88
2023/08/08 00:58:26;;;;;;;8.32;3.22;;;;;;;;;;5073052;28;20051;-88
2023/08/08 01:01:10;;;;;;;6.22;3.15;;;;;;;;;;5074383;28;20044;-87
2023/08/08 01:03:55;;;;;;;4.82;3.08;;;;;;;;;;5073455;28;20413;-88
2023/08/08 01:06:45;;;;;;;8.90;3.40;;;;;;;;;;5063236;28;20056;-88
2023/08/08 01:09:36;;;;;;;5.95;3.20;;;;;;;;;;5073782;28;20071;-88
2023/08/08 01:12:21;;;;;;;6.00;3.15;;;;;;;;;;5072905;28;20120;-88
2023/08/08 01:15:08;;;;;;;7.15;3.33;;;;;;;;;;5083251;28;20047;-88
2023/08/08 01:17:53;;;;;;;8.23;3.00;;;;;;;;;;5074151;28;20539;-88
2023/08/08 01:20:39;;;;;;;10.02;3.33;;;;;;;;;;5073709;28;20039;-88
2023/08/08 01:23:31;;;;;;;8.10;3.60;;;;;;;;;;5073591;28;20040;-89
2023/08/08 01:26:15;;;;;;;5.90;3.30;;;;;;;;;;5071387;28;20044;-87
2023/08/08 01:29:00;;;;;;;5.32;3.17;;;;;;;;;;5067249;28;20036;-88
2023/08/08 01:31:45;;;;;;;7.32;4.05;;;;;;;;;;5073982;28;20405;-88
2023/08/08 01:34:30;;;;;;;6.53;3.40;;;;;;;;;;5072545;28;20046;-88
2023/08/08 01:37:18;;;;;;;4.95;3.10;;;;;;;;;;5074146;28;20075;-87
2023/08/08 01:40:04;;;;;;;5.55;3.78;;;;;;;;;;5073763;28;20052;-88
2023/08/08 01:42:49;;;;;;;5.18;3.22;;;;;;;;;;5076270;28;20051;-87
2023/08/08 01:45:33;;;;;;;6.25;3.67;;;;;;;;;;5073227;28;20047;-88
2023/08/08 01:48:18;;;;;;;5.07;3.08;;;;;;;;;;5073614;28;20082;-86
2023/08/08 01:51:03;;;;;;;10.68;3.65;;;;;;;;;;5073721;28;20051;-88
2023/08/08 01:53:47;;;;;;;5.38;3.80;;;;;;;;;;5074482;28;20116;-87
2023/08/08 01:56:31;;;;;;;4.45;3.30;;;;;;;;;;5073103;28;20504;-88
2023/08/08 01:59:16;;;;;;;9.25;3.70;;;;;;;;;;5059689;28;20038;-88
2023/08/08 02:02:01;;;;;;;6.38;4.05;;;;;;;;;;5072371;28;20040;-88
2023/08/08 02:04:46;;;;;;;6.35;3.78;;;;;;;;;;5073086;28;20116;-88
2023/08/08 02:07:30;;;;;;;8.63;3.85;;;;;;;;;;5072768;28;20094;-87
2023/08/08 02:10:15;;;;;;;7.63;4.03;;;;;;;;;;5083516;28;20442;-87
2023/08/08 02:12:59;;;;;;;6.43;3.63;;;;;;;;;;5044382;28;20086;-87
2023/08/08 02:15:43;;;;;;;6.75;3.90;;;;;;;;;;5067551;28;20048;-88
2023/08/08 02:18:28;;;;;;;9.05;4.40;;;;;;;;;;5072650;28;20399;-88
2023/08/08 02:21:13;;;;;;;4.97;3.33;;;;;;;;;;5072958;28;20082;-88
2023/08/08 02:23:57;;;;;;;7.45;4.10;;;;;;;;;;5072007;28;20500;-88
2023/08/08 02:26:42;;;;;;;9.27;4.07;;;;;;;;;;5071356;28;20043;-87
2023/08/08 02:29:26;;;;;;;9.48;3.80;;;;;;;;;;5071264;28;20447;-86
2023/08/08 02:32:11;;;;;;;7.78;4.00;;;;;;;;;;5071948;28;20098;-88
2023/08/08 02:34:55;;;;;;;6.13;3.70;;;;;;;;;;5072714;28;20584;-88
2023/08/08 02:37:40;;;;;;;8.57;3.67;;;;;;;;;;5078992;28;20177;-89
2023/08/08 02:40:26;;;;;;;9.00;3.78;;;;;;;;;;5071742;28;20047;-88
2023/08/08 02:43:11;;;;;;;7.90;3.50;;;;;;;;;;5071411;28;20086;-88
2023/08/08 02:45:56;;;;;;;8.07;4.07;;;;;;;;;;5071617;28;20051;-88
2023/08/08 02:48:41;;;;;;;6.50;3.38;;;;;;;;;;5071021;28;20125;-88
2023/08/08 02:51:25;;;;;;;4.47;3.63;;;;;;;;;;5072292;28;20047;-88
2023/08/08 02:54:10;;;;;;;11.13;3.80;;;;;;;;;;5072322;28;20401;-88
2023/08/08 02:56:54;;;;;;;9.43;3.35;;;;;;;;;;5072254;28;20097;-88
2023/08/08 02:59:39;;;;;;;6.20;4.05;;;;;;;;;;5070861;28;20040;-87
2023/08/08 03:02:24;;;;;;;8.35;3.33;;;;;;;;;;5072096;28;20055;-87
2023/08/08 03:05:08;;;;;;;9.15;3.83;;;;;;;;;;5075584;28;20091;-88
2023/08/08 03:07:53;;;;;;;8.68;3.72;;;;;;;;;;5057820;28;20040;-87
2023/08/08 03:10:38;;;;;;;6.70;3.60;;;;;;;;;;5071469;28;20125;-88
2023/08/08 03:13:23;;;;;;;6.78;4.22;;;;;;;;;;5071091;28;20039;-88
2023/08/08 03:16:08;;;;;;;6.30;3.42;;;;;;;;;;5070368;28;20078;-89
2023/08/08 03:18:52;;;;;;;5.85;3.90;;;;;;;;;;5071420;28;20503;-86
2023/08/08 03:21:37;;;;;;;10.52;3.70;;;;;;;;;;5059600;28;20046;-88
2023/08/08 03:24:21;;;;;;;11.50;3.80;;;;;;;;;;5070770;28;20454;-88
2023/08/08 03:27:06;;;;;;;5.68;3.85;;;;;;;;;;5064438;28;20051;-89
2023/08/08 03:29:50;;;;;;;8.45;3.30;;;;;;;;;;5064725;28;20514;-88
2023/08/08 03:32:35;;;;;;;6.43;3.83;;;;;;;;;;5050342;28;20043;-87
2023/08/08 03:35:19;;;;;;;8.73;4.03;;;;;;;;;;5060997;28;20101;-88
2023/08/08 03:38:04;;;;;;;10.68;3.90;;;;;;;;;;5070577;28;20047;-88
2023/08/08 03:40:49;;;;;;;10.27;3.83;;;;;;;;;;5056220;28;20043;-88
2023/08/08 03:43:33;;;;;;;7.22;3.80;;;;;;;;;;5071581;28;20039;-87
2023/08/08 03:46:18;;;;;;;6.40;4.38;;;;;;;;;;5071376;28;20094;-87
2023/08/08 03:49:03;;;;;;;7.82;3.75;;;;;;;;;;5070603;28;20047;-88
2023/08/08 03:51:48;;;;;;;6.40;4.13;;;;;;;;;;5071008;28;20166;-88
2023/08/08 03:54:33;;;;;;;8.15;3.40;;;;;;;;;;5071363;28;20039;-88
2023/08/08 03:57:17;;;;;;;6.70;3.67;;;;;;;;;;5071319;28;20119;-88
2023/08/08 04:00:02;;;;;;;9.40;3.58;;;;;;;;;;5071329;28;20040;-88
2023/08/08 04:02:47;;;;;;;6.50;3.90;;;;;;;;;;5069859;28;20115;-88
2023/08/08 04:05:31;;;;;;;6.93;3.88;;;;;;;;;;5071102;28;20078;-88
2023/08/08 04:08:16;;;;;;;6.90;3.65;;;;;;;;;;5071323;28;20036;-87
2023/08/08 04:11:01;;;;;;;12.10;4.07;;;;;;;;;;5070669;28;20031;-88
2023/08/08 04:13:45;;;;;;;7.30;3.53;;;;;;;;;;5066674;28;20090;-87
2023/08/08 04:16:30;;;;;;;6.30;3.33;;;;;;;;;;5059751;28;20047;-88
2023/08/08 04:19:15;;;;;;;9.40;3.28;;;;;;;;;;5071089;28;20097;-88
2023/08/08 04:21:59;;;;;;;11.95;3.40;;;;;;;;;;5070719;28;20063;-88
2023/08/08 04:24:44;;;;;;;8.32;3.40;;;;;;;;;;5070580;28;20035;-88
2023/08/08 04:27:29;;;;;;;11.35;3.65;;;;;;;;;;5072292;28;20066;-88
2023/08/08 04:30:13;;;;;;;6.80;3.65;;;;;;;;;;5079286;28;20602;-88
2023/08/08 04:32:58;;;;;;;11.00;3.25;;;;;;;;;;5074499;28;20036;-88
2023/08/08 04:35:43;;;;;;;6.57;2.97;;;;;;;;;;5074764;28;20412;-86
2023/08/08 04:38:28;;;;;;;10.38;3.08;;;;;;;;;;5075111;28;20043;-88
2023/08/08 04:41:12;;;;;;;12.93;2.95;;;;;;;;;;5073789;28;20048;-87
2023/08/08 04:43:57;;;;;;;8.75;2.83;;;;;;;;;;5074446;28;20047;-87
2023/08/08 04:46:42;;;;;;;6.50;2.70;;;;;;;;;;5074662;28;20197;-86
2023/08/08 04:49:26;;;;;;;8.68;2.65;;;;;;;;;;5074952;28;20078;-88
2023/08/08 04:52:11;;;;;;;5.45;2.58;;;;;;;;;;5074816;28;20040;-89
2023/08/08 04:54:55;;;;;;;7.38;2.58;;;;;;;;;;5074149;28;20086;-89
2023/08/08 04:57:40;;;;;;;13.68;3.03;;;;;;;;;;5077632;28;20116;-88
2023/08/08 05:00:27;;;;;;;6.65;2.90;;;;;;;;;;5073888;28;20082;-88
2023/08/08 05:03:11;;;;;;;10.32;2.75;;;;;;;;;;5074327;28;20102;-88
2023/08/08 05:05:56;;;;;;;9.23;2.40;;;;;;;;;;5072310;28;20094;-88
2023/08/08 05:08:41;;;;;;;8.25;2.85;;;;;;;;;;5074442;28;20044;-88
2023/08/08 05:11:25;;;;;;;9.75;2.72;;;;;;;;;;5069560;28;20062;-87
2023/08/08 05:14:10;;;;;;;6.03;2.30;;;;;;;;;;5072533;28;20048;-89
2023/08/08 05:16:54;;;;;;;8.40;2.50;;;;;;;;;;5073640;28;20042;-88
2023/08/08 05:19:39;;;;;;;11.15;2.90;;;;;;;;;;5074098;28;20082;-87
2023/08/08 05:22:23;;;;;;;6.30;2.42;;;;;;;;;;5073162;28;20141;-88
2023/08/08 05:25:08;;;;;;;8.93;2.42;;;;;;;;;;5077634;28;20208;-88
2023/08/08 05:27:53;;;;;;;11.13;3.05;;;;;;;;;;5070314;28;20139;-88
2023/08/08 05:30:37;;;;;;;5.88;2.08;;;;;;;;;;5073504;28;20040;-88
2023/08/08 05:33:22;;;;;;;7.55;2.20;;;;;;;;;;5059913;28;20093;-88
2023/08/08 05:36:07;;;;;;;10.98;2.75;;;;;;;;;;5073346;28;20541;-88
2023/08/08 05:38:51;;;;;;;7.15;3.00;;;;;;;;;;5072553;28;20404;-86
2023/08/08 05:41:36;;;;;;;8.35;2.92;;;;;;;;;;5058673;28;20070;-89
2023/08/08 05:44:21;;;;;;;8.55;2.67;;;;;;;;;;5065983;28;20499;-89
2023/08/08 05:47:05;;;;;;;3.92;2.03;;;;;;;;;;5069603;28;20129;-88
2023/08/08 05:49:50;;;;;;;6.63;2.53;;;;;;;;;;5058184;28;20565;-85
2023/08/08 05:52:35;;;;;;;8.75;2.50;;;;;;;;;;5055372;28;20043;-87
2023/08/08 05:55:19;;;;;;;6.47;2.10;;;;;;;;;;5079639;28;20075;-90
2023/08/08 05:58:04;;;;;;;10.27;2.40;;;;;;;;;;5070739;28;20038;-88
2023/08/08 06:00:49;;;;;;;7.38;2.08;;;;;;;;;;5072408;28;20090;-88
2023/08/08 06:03:33;;;;;;;6.40;1.88;;;;;;;;;;5066706;28;20048;-89
2023/08/08 06:06:18;;;;;;;7.05;2.00;;;;;;;;;;5068852;28;20063;-89
2023/08/08 06:09:03;;;;;;;9.48;2.33;;;;;;;;;;5071306;28;20071;-87
2023/08/08 06:11:47;;;;;;;5.35;1.70;;;;;;;;;;5073288;28;20067;-88
2023/08/08 06:14:32;;;;;;;5.80;1.80;;;;;;;;;;5080450;28;20102;-88
2023/08/08 06:17:16;;;;;;;9.38;1.77;;;;;;;;;;5082205;28;20151;-88
2023/08/08 06:20:01;;;;;;;9.02;2.08;;;;;;;;;;5071441;28;20043;-88
2023/08/08 06:22:45;;;;;;;7.13;1.95;;;;;;;;;;5071407;28;20449;-89
2023/08/08 06:25:30;;;;;;;11.82;2.13;;;;;;;;;;5076499;28;20396;-88
2023/08/08 06:28:15;;;;;;;5.50;1.60;;;;;;;;;;5069834;28;20047;-88
2023/08/08 06:30:59;;;;;;;8.85;2.63;;;;;;;;;;5064756;28;20087;-86
2023/08/08 06:33:44;;;;;;;7.88;1.90;;;;;;;;;;5068703;28;20036;-89
2023/08/08 06:36:29;;;;;;;5.00;1.90;;;;;;;;;;5071230;28;20499;-89
2023/08/08 06:39:13;;;;;;;6.75;2.15;;;;;;;;;;5072044;28;20047;-90
2023/08/08 06:41:58;;;;;;;7.32;2.22;;;;;;;;;;5072541;28;20043;-89
2023/08/08 06:44:43;;;;;;;5.05;1.90;;;;;;;;;;5071571;28;20039;-89
2023/08/08 06:47:28;;;;;;;11.13;2.05;;;;;;;;;;5072433;28;20043;-87
2023/08/08 06:50:13;;;;;;;7.30;1.90;;;;;;;;;;5071127;28;20062;-88
2023/08/08 06:52:57;;;;;;;7.82;1.65;;;;;;;;;;5074445;28;20035;-87
2023/08/08 06:55:42;;;;;;;7.60;1.67;;;;;;;;;;5079602;28;20135;-88
2023/08/08 06:58:27;;;;;;;9.50;1.60;;;;;;;;;;5079148;28;20170;-86
2023/08/08 07:01:11;;;;;;;5.57;1.83;;;;;;;;;;5070634;28;20063;-89
2023/08/08 07:03:57;;;;;;;11.70;1.88;;;;;;;;;;5073077;28;20545;-89
2023/08/08 07:06:43;;;;;;;6.10;1.70;;;;;;;;;;5069594;28;20107;-88
2023/08/08 07:09:28;;;;;;;7.07;1.67;;;;;;;;;;5071605;28;20526;-89
2023/08/08 07:12:12;;;;;;;8.98;2.15;;;;;;;;;;5070508;28;20089;-89
2023/08/08 07:14:57;;;;;;;5.60;1.65;;;;;;;;;;5072099;28;20138;-87
2023/08/08 07:17:42;;;;;;;7.65;1.67;;;;;;;;;;5071877;28;20178;-87
2023/08/08 07:20:26;;;;;;;6.53;1.67;;;;;;;;;;5071540;28;20127;-87
2023/08/08 07:23:10;;;;;;;6.60;1.60;;;;;;;;;;5070451;28;20447;-87
2023/08/08 07:25:55;;;;;;;5.97;1.65;;;;;;;;;;5070723;28;20359;-89
2023/08/08 07:28:40;;;;;;;4.85;1.50;;;;;;;;;;5070906;28;20538;-89
2023/08/08 07:31:24;;;;;;;4.43;1.75;;;;;;;;;;5070215;28;20491;-88
2023/08/08 07:34:09;;;;;;;6.18;1.58;;;;;;;;;;5071303;28;20415;-90
2023/08/08 07:36:54;;;;;;;3.13;1.35;;;;;;;;;;5070891;28;20047;-88
2023/08/08 07:39:38;;;;;;;4.75;2.15;;;;;;;;;;5071594;28;20039;-88
2023/08/08 07:42:23;;;;;;;4.10;1.50;;;;;;;;;;5071243;28;20081;-87
2023/08/08 07:45:08;;;;;;;3.20;1.60;;;;;;;;;;5071069;28;20040;-87
2023/08/08 07:47:52;;;;;;;4.40;1.50;;;;;;;;;;5070566;28;20515;-87
2023/08/08 07:50:37;;;;;;;8.48;1.73;;;;;;;;;;5071578;28;20055;-87
2023/08/08 07:53:21;;;;;;;8.00;1.90;;;;;;;;;;5069805;28;20047;-87
2023/08/08 07:56:06;;;;;;;6.90;1.70;;;;;;;;;;5058404;28;20078;-87
2023/08/08 07:58:50;;;;;;;7.38;1.77;;;;;;;;;;5070351;28;20039;-87
2023/08/08 08:01:35;;;;;;;5.72;2.05;;;;;;;;;;5071401;28;20061;-86
2023/08/08 08:04:19;;;;;;;4.72;1.40;;;;;;;;;;5070751;28;20070;-87
2023/08/08 08:07:04;;;;;;;7.63;2.25;;;;;;;;;;5071170;28;20083;-89
2023/08/08 08:09:49;;;;;;;5.57;1.60;;;;;;;;;;5071474;28;20530;-90
2023/08/08 08:12:33;;;;;;;6.22;1.58;;;;;;;;;;5069848;28;20086;-91
2023/08/08 08:15:18;;;;;;;4.85;2.08;;;;;;;;;;5070873;28;20071;-90
2023/08/08 08:18:03;;;;;;;6.82;1.75;;;;;;;;;;5071343;28;20621;-90
2023/08/08 08:20:48;;;;;;;7.55;1.83;;;;;;;;;;5071070;28;20114;-88
2023/08/08 08:23:33;;;;;;;5.60;1.48;;;;;;;;;;5069801;28;20094;-90
2023/08/08 08:26:17;;;;;;;5.25;1.75;;;;;;;;;;5070538;28;20035;-91
2023/08/08 08:29:01;;;;;;;4.85;1.27;;;;;;;;;;5070330;28;20113;-91
2023/08/08 08:31:46;;;;;;;9.35;1.77;;;;;;;;;;5071304;28;20427;-90
2023/08/08 08:34:30;;;;;;;9.45;1.83;;;;;;;;;;5070529;28;20840;-89
2023/08/08 08:37:15;;;;;;;8.43;1.60;;;;;;;;;;5070678;28;20043;-90
2023/08/08 08:40:00;;;;;;;7.93;2.17;;;;;;;;;;5069967;28;20043;-90
2023/08/08 08:42:45;;;;;;;5.10;1.75;;;;;;;;;;5070182;28;20504;-91
2023/08/08 08:45:30;;;;;;;5.05;1.40;;;;;;;;;;5070542;28;20388;-90
2023/08/08 08:48:15;;;;;;;5.32;1.98;;;;;;;;;;5070128;28;20043;-88
2023/08/08 08:51:00;;;;;;;12.02;2.30;;;;;;;;;;5070990;28;20063;-90
2023/08/08 08:53:46;;;;;;;6.03;2.05;;;;;;;;;;5069895;28;20039;-91
2023/08/08 08:56:32;;;;;;;4.88;1.63;;;;;;;;;;5070512;28;20455;-90
2023/08/08 08:59:17;;;;;;;7.63;1.67;;;;;;;;;;5070496;28;20044;-90
2023/08/08 09:02:02;;;;;;;3.97;1.80;;;;;;;;;;5071003;28;20500;-91
2023/08/08 09:04:47;;;;;;;6.45;1.73;;;;;;;;;;5070960;28;20094;-90
2023/08/08 09:07:32;;;;;;;5.20;1.73;;;;;;;;;;5070118;28;20087;-91
2023/08/08 09:10:18;;;;;;;5.40;1.92;;;;;;;;;;5070527;28;20511;-88
2023/08/08 09:13:02;;;;;;;5.45;1.60;;;;;;;;;;5070498;28;20052;-90
2023/08/08 09:15:49;;;;;;;3.83;1.70;;;;;;;;;;5073318;28;20056;-91
2023/08/08 09:18:34;;;;;;;4.78;1.60;;;;;;;;;;5072969;28;20085;-90
2023/08/08 09:21:19;;;;;;;4.95;1.50;;;;;;;;;;5073863;28;20082;-89
2023/08/08 09:24:03;;;;;;;5.47;1.80;;;;;;;;;;5074592;28;20131;-87
2023/08/08 09:26:48;;;;;;;4.40;1.40;;;;;;;;;;5073290;28;20054;-91
2023/08/08 09:29:33;;;;;;;4.85;1.60;;;;;;;;;;5073634;28;20479;-90
2023/08/08 09:32:18;;;;;;;4.25;1.80;;;;;;;;;;5073179;28;20074;-88
2023/08/08 09:35:03;;;;;;;7.43;1.90;;;;;;;;;;5073139;28;20067;-87
2023/08/08 09:37:47;;;;;;;6.65;1.50;;;;;;;;;;5074187;28;20075;-87
2023/08/08 09:40:32;;;;;;;5.15;1.50;;;;;;;;;;5075953;28;20067;-89
2023/08/08 09:43:17;;;;;;;4.82;1.67;;;;;;;;;;5074098;28;20058;-90
2023/08/08 09:46:02;;;;;;;4.57;1.50;;;;;;;;;;5072827;28;20508;-89
2023/08/08 09:48:47;;;;;;;3.80;1.58;;;;;;;;;;5073952;28;20035;-89
2023/08/08 09:51:33;;;;;;;6.10;1.88;;;;;;;;;;5072181;28;20042;-90
2023/08/08 09:54:18;;;;;;;5.25;1.88;;;;;;;;;;5073585;28;20040;-91
2023/08/08 09:57:03;;;;;;;8.43;2.10;;;;;;;;;;5072672;28;20067;-87
2023/08/08 09:59:48;;;;;;;5.18;1.73;;;;;;;;;;5073502;28;20171;-90
2023/08/08 10:02:33;;;;;;;6.45;2.22;;;;;;;;;;5072898;28;20035;-91
2023/08/08 10:05:18;;;;;;;6.32;1.80;;;;;;;;;;5073374;28;20086;-89
2023/08/08 10:08:02;;;;;;;4.97;1.48;;;;;;;;;;5073779;28;20409;-91
2023/08/08 10:10:48;;;;;;;6.57;1.55;;;;;;;;;;5072822;28;20519;-88
2023/08/08 10:13:33;;;;;;;6.18;1.80;;;;;;;;;;5071863;28;20040;-92
2023/08/08 10:16:18;;;;;;;4.50;2.10;;;;;;;;;;5073361;28;20079;-89
2023/08/08 10:19:05;;;;;;;5.63;1.80;;;;;;;;;;5073550;28;20442;-91
2023/08/08 10:21:55;;;;;;;8.30;2.15;;;;;;;;;;5071952;28;20066;-89
2023/08/08 10:24:40;;;;;;;4.05;1.55;;;;;;;;;;5072551;28;20047;-91
2023/08/08 10:27:43;;;;;;;4.05;1.52;;;;;;;;;;5072912;28;20055;-89
2023/08/08 10:30:27;;;;;;;10.57;1.75;;;;;;;;;;5076641;28;20043;-89
2023/08/08 10:33:19;;;;;;;8.75;2.00;;;;;;;;;;5071744;28;20059;-90
2023/08/08 10:36:06;;;;;;;5.43;1.70;;;;;;;;;;5072683;28;20086;-92
2023/08/08 10:38:52;;;;;;;7.43;2.00;;;;;;;;;;5078683;28;20075;-90
2023/08/08 10:41:44;;;;;;;7.18;1.88;;;;;;;;;;5071721;28;20404;-90
2023/08/08 10:44:29;;;;;;;6.40;1.77;;;;;;;;;;5072320;28;20039;-91
2023/08/08 10:47:13;;;;;;;10.30;2.28;;;;;;;;;;5072073;28;20417;-89
2023/08/08 10:50:18;;;;;;;6.53;2.00;;;;;;;;;;5072386;28;20036;-89
2023/08/08 10:53:03;;;;;;;6.70;1.63;;;;;;;;;;5071367;28;20073;-89
2023/08/08 10:55:49;;;;;;;5.93;1.90;;;;;;;;;;5071867;28;20043;-89
2023/08/08 10:58:41;;;;;;;4.85;1.80;;;;;;;;;;5071789;28;20071;-90
2023/08/08 11:01:26;;;;;;;7.25;1.92;;;;;;;;;;5072405;28;20075;-89
2023/08/08 11:04:11;;;;;;;5.82;1.98;;;;;;;;;;5072217;28;20046;-89
2023/08/08 11:09:30;;;;;;;8.30;2.00;;;;;;;;;;5129887;27;20836;-88
2023/08/08 11:12:15;;;;;;;5.65;1.80;;;;;;;;;;5129663;28;20108;-88
2023/08/08 11:15:00;;;;;;;9.65;2.20;;;;;;;;;;5129933;28;20501;-88
2023/08/08 11:17:45;;;;;;;3.85;1.73;;;;;;;;;;5128769;28;20034;-87
2023/08/08 11:20:31;;;;;;;6.88;2.38;;;;;;;;;;5129787;28;20392;-87
2023/08/08 11:23:16;;;;;;;6.88;2.05;;;;;;;;;;5129695;28;20073;-87
2023/08/08 11:26:01;;;;;;;3.30;1.55;;;;;;;;;;5129448;28;20053;-86
2023/08/08 11:28:50;;;;;;;9.90;2.03;;;;;;;;;;5128089;28;20038;-86
2023/08/08 11:31:35;;;;;;;3.97;1.40;;;;;;;;;;5129264;28;20046;-88
2023/08/08 11:34:19;;;;;;;10.52;1.90;;;;;;;;;;5113797;28;20095;-86
2023/08/08 11:37:04;;;;;;;9.38;2.25;;;;;;;;;;5129305;28;20070;-87
2023/08/08 11:39:49;;;;;;;7.20;2.05;;;;;;;;;;5113242;28;20456;-86
2023/08/08 11:42:34;;;;;;;7.25;1.95;;;;;;;;;;5129284;28;20065;-85
2023/08/08 11:45:19;;;;;;;5.20;1.80;;;;;;;;;;5129273;28;20038;-86
2023/08/08 11:48:04;;;;;;;15.30;2.55;;;;;;;;;;5127387;28;20141;-87
2023/08/08 11:50:49;;;;;;;4.68;1.83;;;;;;;;;;5117795;28;20136;-86
2023/08/08 11:53:34;;;;;;;8.23;2.00;;;;;;;;;;5127781;28;20521;-86
2023/08/08 11:56:19;;;;;;;6.50;1.95;;;;;;;;;;5117517;28;20072;-87
2023/08/08 11:59:05;;;;;;;7.97;2.00;;;;;;;;;;5128655;28;20038;-86
2023/08/08 12:01:50;;;;;;;5.20;1.95;;;;;;;;;;5127361;28;20084;-87
2023/08/08 12:04:35;;;;;;;6.32;2.00;;;;;;;;;;5127877;28;20085;-87
2023/08/08 12:07:20;;;;;;;6.35;1.85;;;;;;;;;;5128415;28;20038;-87
2023/08/08 12:10:05;;;;;;;5.47;2.30;;;;;;;;;;5129057;28;20501;-88
2023/08/08 12:12:55;;;;;;;3.65;1.92;;;20.60;98.70;;;;;;5126953;28;20043;-86
2023/08/08 12:15:39;;;;;;;4.93;2.38;;;;;;;;;;5120659;28;20123;-87
2023/08/08 12:18:24;;;;;;;6.10;2.13;;;;;;;;;;5106439;28;20046;-87
2023/08/08 12:21:09;;;;;;;3.60;1.70;;;;;;;;;;5088928;28;20038;-87
2023/08/08 12:23:54;;;;;;;4.38;2.10;;;;;;;;;;5084435;28;20838;-87
2023/08/08 12:26:38;;;;;;;5.00;2.38;;;;;;;;;;5076914;28;20089;-87
2023/08/08 12:29:23;;;;;;;6.95;2.20;;;;;;;;;;5094057;28;20067;-86
2023/08/08 12:32:08;;;;;;;4.63;2.20;;;;;;;;;;5094039;28;20066;-87
2023/08/08 12:34:52;;;;;;;6.50;2.50;;;;;;;;;;5092283;28;20565;-86
2023/08/08 12:37:37;;;;;;;5.35;2.03;;;;;;;;;;5106926;28;20090;-86
2023/08/08 12:40:22;;;;;;;4.00;1.75;;;;;;;;;;5081305;28;20051;-86
2023/08/08 12:43:07;;;;;;;5.93;1.85;;;;;;;;;;5092286;28;20121;-86
2023/08/08 12:45:52;;;;;;;6.93;1.75;;;;;;;;;;5093489;28;20080;-85
2023/08/08 12:48:36;;;;;;;6.57;1.80;;;;;;;;;;5092942;28;20082;-85
2023/08/08 12:51:21;;;;;;;7.63;2.17;;;;;;;;;;5092557;28;20042;-86
2023/08/08 12:54:06;;;;;;;4.95;2.20;;;;;;;;;;5093304;28;20596;-85
2023/08/08 12:56:50;;;;;;;5.85;2.20;;;;;;;;;;5107810;28;20455;-85
2023/08/08 12:59:35;;;;;;;5.35;1.70;;;;;;;;;;5090763;28;20090;-87
2023/08/08 13:02:19;;;;;;;3.80;1.80;;;;;;;;;;5089946;28;20043;-86
2023/08/08 13:05:06;;;;;;;7.18;2.28;;;;;;;;;;5099999;28;20047;-87
2023/08/08 13:07:51;;;;;;;3.65;1.67;;;;;;;;;;5094041;28;20051;-86
2023/08/08 13:10:36;;;;;;;6.55;1.85;;;;;;;;;;5099458;28;20086;-85
2023/08/08 13:13:24;;;;;;;4.05;1.60;;;;;;;;;;5097921;28;20070;-86
2023/08/08 13:16:10;;;;;;;7.07;1.85;;;;;;;;;;5092591;28;20502;-86
2023/08/08 13:18:55;;;;;;;6.57;2.35;;;;;;;;;;5082679;28;20043;-88
2023/08/08 13:21:39;;;;;;;5.00;1.70;;;;;;;;;;5091092;28;20043;-85
2023/08/08 13:24:24;;;;;;;6.40;2.33;;;;;;;;;;5092140;28;20404;-86
2023/08/08 13:27:08;;;;;;;6.00;1.85;;;;;;;;;;5097771;28;20401;-86
2023/08/08 13:29:53;;;;;;;3.97;2.00;;;;;;;;;;5093096;28;20507;-87
2023/08/08 13:32:38;;;;;;;8.68;2.28;;;;;;;;;;5092117;28;20050;-86
2023/08/08 13:35:22;;;;;;;7.72;1.95;;;;;;;;;;5091829;28;20470;-87
2023/08/08 13:38:14;;;;;;;6.72;2.30;;;;;;;;;;5092128;28;20113;-86
2023/08/08 13:41:00;;;;;;;2.72;1.52;;;;;;;;;;5091463;28;20043;-87
